AFL1040 UUEE-URSS
Flight info
| Callsign | AFL1040 |
|---|---|
| Flight time | N/A |
| Altitude | 35000 |
| Route | TOGMO3J TOGMO M56 ABAGI B105 NIMTA/K0830F360 B105 NATIT/K0828F350 DCT MOLED N50 SUBED/K0841F370 N50 LIDUS G242 ZG DCT ITAKA/K0841F360 DCT OBBUD DCT AMKOL DCT GOTIK DCT MEMZA DCT VENFO DCT BINOL BINOL1K |
| Aircraft | B738/M-SDE2E3FGHIRWXY/LB1 |
Departure
| Time | 2026-05-06 06:20 |
|---|---|
| Airport | Sheremetyevo International Airport (UUEE) |
Arrival
| Time | N/A |
|---|---|
| Airport | Sochi International Airport (URSS) |
| Time | Latitude | Longitude | Altitude | Speed | Heading |
|---|---|---|---|---|---|
| 2026-05-06 05:39 | 55.97960 | 37.41610 | 638 ft | 0 kts | 76° |
| 2026-05-06 06:10 | 55.97956 | 37.41583 | 640 ft | 2 kts | 76° |
| 2026-05-06 06:10 | 55.97952 | 37.41555 | 638 ft | 2 kts | 76° |
| 2026-05-06 06:10 | 55.97948 | 37.41527 | 644 ft | 2 kts | 76° |
| 2026-05-06 06:11 | 55.97944 | 37.41499 | 641 ft | 2 kts | 74° |
| 2026-05-06 06:11 | 55.97940 | 37.41471 | 640 ft | 2 kts | 117° |
| 2026-05-06 06:11 | 55.97952 | 37.41452 | 642 ft | 2 kts | 160° |
| 2026-05-06 06:11 | 55.97963 | 37.41446 | 640 ft | 0 kts | 166° |
| 2026-05-06 06:16 | 55.97938 | 37.41457 | 638 ft | 10 kts | 166° |
| 2026-05-06 06:16 | 55.97868 | 37.41490 | 639 ft | 10 kts | 165° |
| 2026-05-06 06:16 | 55.97799 | 37.41523 | 638 ft | 10 kts | 163° |
| 2026-05-06 06:16 | 55.97733 | 37.41556 | 639 ft | 10 kts | 165° |
| 2026-05-06 06:17 | 55.97668 | 37.41587 | 638 ft | 10 kts | 165° |
| 2026-05-06 06:17 | 55.97613 | 37.41641 | 640 ft | 9 kts | 114° |
| 2026-05-06 06:17 | 55.97621 | 37.41758 | 642 ft | 10 kts | 74° |
| 2026-05-06 06:17 | 55.97641 | 37.41880 | 640 ft | 10 kts | 74° |
| 2026-05-06 06:18 | 55.97657 | 37.42000 | 640 ft | 10 kts | 77° |
| 2026-05-06 06:18 | 55.97674 | 37.42115 | 638 ft | 10 kts | 74° |
| 2026-05-06 06:18 | 55.97699 | 37.42274 | 640 ft | 16 kts | 74° |
| 2026-05-06 06:18 | 55.97727 | 37.42466 | 641 ft | 17 kts | 75° |
| 2026-05-06 06:19 | 55.97757 | 37.42671 | 639 ft | 17 kts | 75° |
| 2026-05-06 06:19 | 55.97721 | 37.42800 | 641 ft | 13 kts | 163° |
| 2026-05-06 06:19 | 55.97635 | 37.42841 | 641 ft | 13 kts | 169° |
| 2026-05-06 06:19 | 55.97591 | 37.42752 | 638 ft | 13 kts | 253° |
| 2026-05-06 06:20 | 55.97539 | 37.42399 | 641 ft | 64 kts | 255° |
| 2026-05-06 06:20 | 55.97355 | 37.41168 | 642 ft | 138 kts | 255° |
| 2026-05-06 06:20 | 55.97057 | 37.39189 | 887 ft | 179 kts | 254° |
| 2026-05-06 06:20 | 55.96717 | 37.37112 | 2006 ft | 173 kts | 255° |
| 2026-05-06 06:21 | 55.96380 | 37.34933 | 2735 ft | 194 kts | 255° |
| 2026-05-06 06:21 | 55.96001 | 37.32472 | 3014 ft | 217 kts | 255° |
| 2026-05-06 06:21 | 55.95576 | 37.29739 | 3333 ft | 241 kts | 255° |
| 2026-05-06 06:21 | 55.95116 | 37.26809 | 4109 ft | 245 kts | 255° |
| 2026-05-06 06:22 | 55.94663 | 37.23925 | 5185 ft | 240 kts | 255° |
| 2026-05-06 06:22 | 55.94212 | 37.21057 | 6106 ft | 240 kts | 255° |
| 2026-05-06 06:22 | 55.93759 | 37.18186 | 6985 ft | 242 kts | 254° |
| 2026-05-06 06:22 | 55.93299 | 37.15267 | 7763 ft | 246 kts | 254° |
| 2026-05-06 06:23 | 55.92831 | 37.12316 | 8601 ft | 248 kts | 254° |
| 2026-05-06 06:23 | 55.92356 | 37.09331 | 9378 ft | 252 kts | 254° |
| 2026-05-06 06:23 | 55.91890 | 37.06404 | 9759 ft | 254 kts | 254° |
| 2026-05-06 06:23 | 55.91699 | 37.03293 | 9833 ft | 260 kts | 276° |
| 2026-05-06 06:24 | 55.92278 | 37.00226 | 9851 ft | 266 kts | 294° |
| 2026-05-06 06:24 | 55.93435 | 36.97609 | 9852 ft | 275 kts | 313° |
| 2026-05-06 06:24 | 55.94971 | 36.95545 | 9865 ft | 279 kts | 318° |
| 2026-05-06 06:24 | 55.96577 | 36.93598 | 9869 ft | 279 kts | 319° |
| 2026-05-06 06:25 | 55.98343 | 36.92068 | 9839 ft | 292 kts | 341° |
| 2026-05-06 06:25 | 55.99729 | 36.91862 | 9873 ft | 302 kts | 358° |
| 2026-05-06 06:25 | 56.03697 | 36.95087 | 10891 ft | 324 kts | 30° |
| 2026-05-06 06:26 | 56.05571 | 36.97357 | 11688 ft | 326 kts | 30° |
| 2026-05-06 06:26 | 56.07461 | 36.99620 | 12421 ft | 329 kts | 29° |
| 2026-05-06 06:26 | 56.09384 | 37.01893 | 13132 ft | 333 kts | 29° |
| 2026-05-06 06:26 | 56.11215 | 37.04421 | 13723 ft | 343 kts | 46° |
| 2026-05-06 06:27 | 56.12428 | 37.08134 | 13834 ft | 356 kts | 73° |
| 2026-05-06 06:27 | 56.13061 | 37.12521 | 14198 ft | 369 kts | 77° |
| 2026-05-06 06:27 | 56.13659 | 37.17023 | 14747 ft | 371 kts | 77° |
| 2026-05-06 06:27 | 56.14278 | 37.21552 | 14839 ft | 375 kts | 77° |
| 2026-05-06 06:28 | 56.14772 | 37.26120 | 14835 ft | 372 kts | 90° |
| 2026-05-06 06:28 | 56.14389 | 37.30614 | 14862 ft | 364 kts | 114° |
| 2026-05-06 06:28 | 56.13164 | 37.34514 | 14932 ft | 359 kts | 134° |
| 2026-05-06 06:28 | 56.11374 | 37.37570 | 15522 ft | 351 kts | 152° |
| 2026-05-06 06:29 | 56.09268 | 37.39643 | 16353 ft | 343 kts | 160° |
| 2026-05-06 06:29 | 56.07108 | 37.41425 | 17007 ft | 346 kts | 161° |
| 2026-05-06 06:29 | 56.04888 | 37.43198 | 17611 ft | 351 kts | 161° |
| 2026-05-06 06:29 | 56.02641 | 37.45022 | 18236 ft | 356 kts | 161° |
| 2026-05-06 06:30 | 56.00385 | 37.46892 | 18808 ft | 359 kts | 160° |
| 2026-05-06 06:30 | 55.98117 | 37.48789 | 19386 ft | 361 kts | 160° |
| 2026-05-06 06:30 | 55.95890 | 37.50914 | 19800 ft | 370 kts | 148° |
| 2026-05-06 06:30 | 55.94147 | 37.54383 | 19818 ft | 384 kts | 123° |
| 2026-05-06 06:31 | 55.93230 | 37.58938 | 20117 ft | 398 kts | 103° |
| 2026-05-06 06:31 | 55.92747 | 37.63736 | 20788 ft | 397 kts | 102° |
| 2026-05-06 06:31 | 55.92254 | 37.68646 | 21414 ft | 398 kts | 103° |
| 2026-05-06 06:31 | 55.91718 | 37.73476 | 22034 ft | 398 kts | 108° |
| 2026-05-06 06:32 | 55.90634 | 37.77977 | 22515 ft | 395 kts | 123° |
| 2026-05-06 06:32 | 55.89237 | 37.82221 | 23039 ft | 398 kts | 124° |
| 2026-05-06 06:32 | 55.87835 | 37.86499 | 23515 ft | 402 kts | 123° |
| 2026-05-06 06:32 | 55.86490 | 37.90719 | 23934 ft | 405 kts | 123° |
| 2026-05-06 06:33 | 55.85111 | 37.95108 | 24382 ft | 407 kts | 123° |
| 2026-05-06 06:33 | 55.83400 | 37.99043 | 24769 ft | 401 kts | 144° |
| 2026-05-06 06:33 | 55.81057 | 38.01575 | 25189 ft | 391 kts | 164° |
| 2026-05-06 06:33 | 55.78437 | 38.02641 | 25623 ft | 383 kts | 181° |
| 2026-05-06 06:34 | 55.75802 | 38.02286 | 26019 ft | 378 kts | 198° |
| 2026-05-06 06:34 | 55.73349 | 38.00704 | 26410 ft | 374 kts | 211° |
| 2026-05-06 06:34 | 55.71250 | 37.98036 | 26787 ft | 372 kts | 225° |
| 2026-05-06 06:34 | 55.69414 | 37.94787 | 27212 ft | 373 kts | 227° |
| 2026-05-06 06:35 | 55.67601 | 37.91483 | 27591 ft | 376 kts | 227° |
| 2026-05-06 06:35 | 55.65782 | 37.88215 | 27967 ft | 378 kts | 227° |
| 2026-05-06 06:35 | 55.63744 | 37.85221 | 28195 ft | 388 kts | 215° |
| 2026-05-06 06:36 | 55.58925 | 37.80386 | 28327 ft | 408 kts | 212° |
| 2026-05-06 06:36 | 55.53901 | 37.75312 | 28435 ft | 424 kts | 212° |
| 2026-05-06 06:36 | 55.51321 | 37.72700 | 28558 ft | 431 kts | 209° |
| 2026-05-06 06:37 | 55.48463 | 37.71001 | 28828 ft | 439 kts | 192° |
| 2026-05-06 06:37 | 55.45426 | 37.70311 | 29249 ft | 440 kts | 190° |
| 2026-05-06 06:37 | 55.42389 | 37.69663 | 29554 ft | 441 kts | 190° |
| 2026-05-06 06:37 | 55.39340 | 37.68980 | 29835 ft | 442 kts | 191° |
| 2026-05-06 06:38 | 55.36284 | 37.68261 | 30167 ft | 442 kts | 191° |
| 2026-05-06 06:38 | 55.33249 | 37.67527 | 30520 ft | 440 kts | 191° |
| 2026-05-06 06:38 | 55.30205 | 37.66786 | 30829 ft | 440 kts | 191° |
| 2026-05-06 06:38 | 55.27164 | 37.66163 | 31127 ft | 443 kts | 185° |
| 2026-05-06 06:39 | 55.24072 | 37.66578 | 31439 ft | 447 kts | 175° |
| 2026-05-06 06:39 | 55.21000 | 37.67396 | 31799 ft | 446 kts | 174° |
| 2026-05-06 06:39 | 55.17937 | 37.68244 | 32083 ft | 446 kts | 175° |
| 2026-05-06 06:39 | 55.14865 | 37.69059 | 32360 ft | 446 kts | 175° |
| 2026-05-06 06:40 | 55.11800 | 37.69828 | 32677 ft | 445 kts | 176° |
| 2026-05-06 06:40 | 55.08736 | 37.70565 | 32981 ft | 444 kts | 175° |
| 2026-05-06 06:40 | 55.05669 | 37.71286 | 33199 ft | 445 kts | 175° |
| 2026-05-06 06:40 | 55.02585 | 37.72010 | 33407 ft | 446 kts | 175° |
| 2026-05-06 06:41 | 54.99508 | 37.72744 | 33686 ft | 446 kts | 174° |
| 2026-05-06 06:41 | 54.96462 | 37.73825 | 33942 ft | 448 kts | 169° |
| 2026-05-06 06:41 | 54.93440 | 37.75198 | 34185 ft | 448 kts | 168° |
| 2026-05-06 06:41 | 54.90421 | 37.76554 | 34412 ft | 448 kts | 169° |
| 2026-05-06 06:42 | 54.87393 | 37.77720 | 34635 ft | 446 kts | 174° |
| 2026-05-06 06:42 | 54.84327 | 37.78494 | 34840 ft | 444 kts | 176° |
| 2026-05-06 06:42 | 54.81240 | 37.79120 | 34847 ft | 448 kts | 176° |
| 2026-05-06 06:43 | 54.75074 | 37.80385 | 34845 ft | 443 kts | 176° |
| 2026-05-06 06:43 | 54.69041 | 37.81763 | 34863 ft | 439 kts | 175° |
| 2026-05-06 06:44 | 54.62925 | 37.83004 | 34860 ft | 440 kts | 179° |
| 2026-05-06 06:44 | 54.56838 | 37.83284 | 34867 ft | 440 kts | 181° |
| 2026-05-06 06:45 | 54.50698 | 37.83540 | 34868 ft | 442 kts | 180° |
| 2026-05-06 06:45 | 54.44540 | 37.83936 | 34867 ft | 443 kts | 180° |
| 2026-05-06 06:46 | 54.38372 | 37.84354 | 34869 ft | 444 kts | 180° |
| 2026-05-06 06:46 | 54.32232 | 37.84761 | 34859 ft | 444 kts | 180° |
| 2026-05-06 06:47 | 54.26063 | 37.85125 | 34867 ft | 443 kts | 180° |
| 2026-05-06 06:47 | 54.19897 | 37.85462 | 34869 ft | 443 kts | 180° |
| 2026-05-06 06:48 | 54.13722 | 37.85791 | 34874 ft | 443 kts | 180° |
| 2026-05-06 06:48 | 54.07564 | 37.86116 | 34873 ft | 442 kts | 180° |
| 2026-05-06 06:49 | 54.01441 | 37.86438 | 34875 ft | 442 kts | 180° |
| 2026-05-06 06:49 | 53.95301 | 37.86751 | 34868 ft | 442 kts | 180° |
| 2026-05-06 06:50 | 53.89156 | 37.87035 | 34879 ft | 441 kts | 180° |
| 2026-05-06 06:50 | 53.83011 | 37.87293 | 34883 ft | 442 kts | 180° |
| 2026-05-06 06:51 | 53.76866 | 37.87541 | 34885 ft | 442 kts | 180° |
| 2026-05-06 06:51 | 53.70719 | 37.87786 | 34886 ft | 442 kts | 180° |
| 2026-05-06 06:52 | 53.64568 | 37.88026 | 34882 ft | 442 kts | 180° |
| 2026-05-06 06:52 | 53.58414 | 37.88256 | 34892 ft | 442 kts | 180° |
| 2026-05-06 06:53 | 53.52253 | 37.88477 | 34894 ft | 443 kts | 180° |
| 2026-05-06 06:53 | 53.46126 | 37.88674 | 34903 ft | 443 kts | 180° |
| 2026-05-06 06:54 | 53.39950 | 37.88867 | 34903 ft | 444 kts | 180° |
| 2026-05-06 06:54 | 53.33768 | 37.89051 | 34906 ft | 444 kts | 180° |
| 2026-05-06 06:55 | 53.27581 | 37.89221 | 34905 ft | 445 kts | 180° |
| 2026-05-06 06:55 | 53.21390 | 37.89395 | 34909 ft | 445 kts | 180° |
| 2026-05-06 06:56 | 53.15185 | 37.89571 | 34907 ft | 445 kts | 180° |
| 2026-05-06 06:56 | 53.09032 | 37.89747 | 34917 ft | 445 kts | 180° |
| 2026-05-06 06:57 | 53.02839 | 37.89937 | 34908 ft | 445 kts | 180° |
| 2026-05-06 06:57 | 52.96645 | 37.90120 | 34923 ft | 445 kts | 180° |
| 2026-05-06 06:58 | 52.90451 | 37.90289 | 34920 ft | 445 kts | 180° |
| 2026-05-06 06:58 | 52.84254 | 37.90459 | 34924 ft | 445 kts | 180° |
| 2026-05-06 06:59 | 52.78099 | 37.90620 | 34930 ft | 445 kts | 180° |
| 2026-05-06 06:59 | 52.71903 | 37.90772 | 34921 ft | 445 kts | 180° |
| 2026-05-06 07:00 | 52.65703 | 37.90926 | 34930 ft | 445 kts | 180° |
| 2026-05-06 07:00 | 52.59507 | 37.91070 | 34932 ft | 445 kts | 180° |
| 2026-05-06 07:01 | 52.53309 | 37.91226 | 34935 ft | 445 kts | 180° |
| 2026-05-06 07:01 | 52.47108 | 37.91400 | 34936 ft | 446 kts | 180° |
| 2026-05-06 07:02 | 52.40945 | 37.91548 | 34941 ft | 446 kts | 180° |
| 2026-05-06 07:02 | 52.34738 | 37.91698 | 34937 ft | 446 kts | 180° |
| 2026-05-06 07:03 | 52.28530 | 37.91814 | 34945 ft | 446 kts | 180° |
| 2026-05-06 07:03 | 52.22318 | 37.91915 | 34940 ft | 446 kts | 180° |
| 2026-05-06 07:04 | 52.16104 | 37.92037 | 34949 ft | 446 kts | 180° |
| 2026-05-06 07:04 | 52.09891 | 37.92149 | 34940 ft | 447 kts | 180° |
| 2026-05-06 07:05 | 52.03671 | 37.92250 | 34951 ft | 447 kts | 180° |
| 2026-05-06 07:05 | 51.97485 | 37.92332 | 34952 ft | 448 kts | 180° |
| 2026-05-06 07:06 | 51.91246 | 37.92363 | 34957 ft | 449 kts | 180° |
| 2026-05-06 07:06 | 51.84992 | 37.92376 | 34964 ft | 450 kts | 180° |
| 2026-05-06 07:07 | 51.78728 | 37.92370 | 34958 ft | 450 kts | 180° |
| 2026-05-06 07:07 | 51.72456 | 37.92344 | 34953 ft | 451 kts | 180° |
| 2026-05-06 07:08 | 51.66204 | 37.92316 | 34969 ft | 451 kts | 180° |
| 2026-05-06 07:08 | 51.59912 | 37.92282 | 34956 ft | 452 kts | 180° |
| 2026-05-06 07:09 | 51.53611 | 37.92230 | 34976 ft | 453 kts | 180° |
| 2026-05-06 07:09 | 51.47306 | 37.92160 | 34972 ft | 453 kts | 180° |
| 2026-05-06 07:10 | 51.42055 | 37.92093 | 34973 ft | 453 kts | 180° |
| 2026-05-06 07:10 | 51.35749 | 37.92009 | 34965 ft | 453 kts | 180° |
| 2026-05-06 07:11 | 51.29449 | 37.91922 | 34971 ft | 452 kts | 180° |
| 2026-05-06 07:11 | 51.23187 | 37.91833 | 34985 ft | 452 kts | 180° |
| 2026-05-06 07:12 | 51.16900 | 37.91730 | 34978 ft | 452 kts | 180° |
| 2026-05-06 07:12 | 51.10612 | 37.91607 | 34980 ft | 452 kts | 180° |
| 2026-05-06 07:13 | 51.04326 | 37.91486 | 34984 ft | 452 kts | 180° |
| 2026-05-06 07:13 | 50.98027 | 37.91365 | 34988 ft | 452 kts | 180° |
| 2026-05-06 07:14 | 50.91752 | 37.91251 | 34986 ft | 452 kts | 180° |
| 2026-05-06 07:14 | 50.85497 | 37.91129 | 34989 ft | 452 kts | 180° |
| 2026-05-06 07:15 | 50.79223 | 37.90996 | 34993 ft | 451 kts | 180° |
| 2026-05-06 07:15 | 50.72924 | 37.90857 | 34996 ft | 452 kts | 180° |
| 2026-05-06 07:16 | 50.66631 | 37.90715 | 34993 ft | 452 kts | 180° |
| 2026-05-06 07:16 | 50.60326 | 37.90572 | 34990 ft | 452 kts | 180° |
| 2026-05-06 07:17 | 50.54074 | 37.90425 | 34995 ft | 452 kts | 180° |
| 2026-05-06 07:17 | 50.47785 | 37.90289 | 35000 ft | 452 kts | 180° |
| 2026-05-06 07:18 | 50.41498 | 37.90156 | 34999 ft | 451 kts | 180° |
| 2026-05-06 07:18 | 50.35218 | 37.90030 | 34997 ft | 451 kts | 180° |
| 2026-05-06 07:19 | 50.28939 | 37.89897 | 35012 ft | 451 kts | 180° |
| 2026-05-06 07:19 | 50.22664 | 37.89766 | 35012 ft | 451 kts | 180° |
| 2026-05-06 07:20 | 50.16388 | 37.89636 | 35011 ft | 451 kts | 180° |
| 2026-05-06 07:20 | 50.10106 | 37.89515 | 35005 ft | 451 kts | 180° |
| 2026-05-06 07:21 | 50.03879 | 37.89404 | 35012 ft | 450 kts | 180° |
| 2026-05-06 07:21 | 49.97614 | 37.89297 | 35023 ft | 450 kts | 180° |
| 2026-05-06 07:22 | 49.91348 | 37.89191 | 35017 ft | 450 kts | 180° |
| 2026-05-06 07:22 | 49.85082 | 37.89081 | 35028 ft | 450 kts | 180° |
| 2026-05-06 07:23 | 49.78850 | 37.88976 | 35022 ft | 450 kts | 180° |
| 2026-05-06 07:23 | 49.72595 | 37.88858 | 35035 ft | 450 kts | 180° |
| 2026-05-06 07:24 | 49.66333 | 37.88720 | 35026 ft | 450 kts | 180° |
| 2026-05-06 07:24 | 49.60061 | 37.88555 | 35027 ft | 450 kts | 180° |
| 2026-05-06 07:25 | 49.53801 | 37.88379 | 35023 ft | 450 kts | 180° |
| 2026-05-06 07:25 | 49.47538 | 37.88196 | 35034 ft | 450 kts | 180° |
| 2026-05-06 07:26 | 49.41312 | 37.88014 | 35038 ft | 450 kts | 180° |
| 2026-05-06 07:26 | 49.35038 | 37.87832 | 35038 ft | 451 kts | 180° |
| 2026-05-06 07:27 | 49.28765 | 37.87664 | 35037 ft | 451 kts | 180° |
| 2026-05-06 07:27 | 49.22481 | 37.87496 | 35037 ft | 450 kts | 180° |
| 2026-05-06 07:28 | 49.16214 | 37.87311 | 35037 ft | 450 kts | 180° |
| 2026-05-06 07:28 | 49.06855 | 37.87012 | 35041 ft | 450 kts | 180° |
| 2026-05-06 07:29 | 49.00598 | 37.86814 | 35050 ft | 449 kts | 180° |
| 2026-05-06 07:29 | 48.94342 | 37.86603 | 35046 ft | 449 kts | 180° |
| 2026-05-06 07:30 | 48.88089 | 37.86370 | 35044 ft | 449 kts | 180° |
| 2026-05-06 07:30 | 48.81837 | 37.86126 | 35052 ft | 449 kts | 180° |
| 2026-05-06 07:31 | 48.75593 | 37.85879 | 35049 ft | 449 kts | 180° |
| 2026-05-06 07:31 | 48.69338 | 37.85630 | 35056 ft | 450 kts | 180° |
| 2026-05-06 07:32 | 48.63078 | 37.85357 | 35052 ft | 450 kts | 180° |
| 2026-05-06 07:32 | 48.56807 | 37.85056 | 35056 ft | 451 kts | 180° |
| 2026-05-06 07:33 | 48.50528 | 37.84741 | 35052 ft | 452 kts | 180° |
| 2026-05-06 07:33 | 48.44239 | 37.84422 | 35063 ft | 452 kts | 180° |
| 2026-05-06 07:34 | 48.37982 | 37.84081 | 35060 ft | 453 kts | 180° |
| 2026-05-06 07:34 | 48.31674 | 37.83710 | 35058 ft | 454 kts | 180° |
| 2026-05-06 07:35 | 48.25358 | 37.83326 | 35062 ft | 455 kts | 180° |
| 2026-05-06 07:35 | 48.19020 | 37.82921 | 35059 ft | 455 kts | 180° |
| 2026-05-06 07:36 | 48.12687 | 37.82496 | 35064 ft | 456 kts | 180° |
| 2026-05-06 07:36 | 48.06350 | 37.82046 | 35062 ft | 456 kts | 180° |
| 2026-05-06 07:37 | 48.00017 | 37.81587 | 35059 ft | 455 kts | 180° |
| 2026-05-06 07:37 | 47.93737 | 37.81131 | 35067 ft | 454 kts | 180° |
| 2026-05-06 07:38 | 47.87416 | 37.80657 | 35066 ft | 455 kts | 180° |
| 2026-05-06 07:38 | 47.81093 | 37.80150 | 35069 ft | 455 kts | 180° |
| 2026-05-06 07:39 | 47.74766 | 37.79631 | 35070 ft | 455 kts | 180° |
| 2026-05-06 07:39 | 47.68424 | 37.79110 | 35069 ft | 456 kts | 180° |
| 2026-05-06 07:40 | 47.62090 | 37.78582 | 35083 ft | 456 kts | 180° |
| 2026-05-06 07:40 | 47.55794 | 37.78033 | 35078 ft | 456 kts | 180° |
| 2026-05-06 07:41 | 47.49450 | 37.77451 | 35071 ft | 457 kts | 180° |
| 2026-05-06 07:41 | 47.43098 | 37.76850 | 35075 ft | 457 kts | 180° |
| 2026-05-06 07:42 | 47.36739 | 37.76237 | 35078 ft | 458 kts | 180° |
| 2026-05-06 07:42 | 47.30374 | 37.75599 | 35078 ft | 458 kts | 180° |
| 2026-05-06 07:43 | 47.24004 | 37.74952 | 35082 ft | 459 kts | 180° |
| 2026-05-06 07:43 | 47.17631 | 37.74301 | 35081 ft | 459 kts | 180° |
| 2026-05-06 07:44 | 47.11254 | 37.73640 | 35085 ft | 459 kts | 180° |
| 2026-05-06 07:44 | 47.04874 | 37.72965 | 35078 ft | 460 kts | 180° |
| 2026-05-06 07:45 | 46.98494 | 37.72284 | 35082 ft | 459 kts | 180° |
| 2026-05-06 07:45 | 46.92116 | 37.71602 | 35084 ft | 459 kts | 180° |
| 2026-05-06 07:46 | 46.85776 | 37.70922 | 35088 ft | 459 kts | 180° |
| 2026-05-06 07:46 | 46.79416 | 37.70240 | 35086 ft | 459 kts | 180° |
| 2026-05-06 07:47 | 46.73035 | 37.69554 | 35086 ft | 459 kts | 180° |
| 2026-05-06 07:47 | 46.66665 | 37.68868 | 35081 ft | 459 kts | 180° |
| 2026-05-06 07:48 | 46.60296 | 37.68178 | 35090 ft | 459 kts | 180° |
| 2026-05-06 07:48 | 46.53967 | 37.67486 | 35084 ft | 459 kts | 180° |
| 2026-05-06 07:49 | 46.47596 | 37.66788 | 35093 ft | 459 kts | 180° |
| 2026-05-06 07:49 | 46.41222 | 37.66096 | 35088 ft | 459 kts | 180° |
| 2026-05-06 07:50 | 46.34844 | 37.65406 | 35087 ft | 460 kts | 180° |
| 2026-05-06 07:50 | 46.28461 | 37.64713 | 35083 ft | 460 kts | 180° |
| 2026-05-06 07:51 | 46.22065 | 37.64019 | 35085 ft | 460 kts | 180° |
| 2026-05-06 07:51 | 46.15722 | 37.63330 | 35087 ft | 460 kts | 180° |
| 2026-05-06 07:52 | 46.09324 | 37.62641 | 35086 ft | 460 kts | 180° |
| 2026-05-06 07:52 | 46.02925 | 37.61970 | 35080 ft | 460 kts | 180° |
| 2026-05-06 07:53 | 45.96542 | 37.61308 | 35082 ft | 460 kts | 180° |
| 2026-05-06 07:53 | 45.90204 | 37.60654 | 35089 ft | 459 kts | 180° |
| 2026-05-06 07:54 | 45.83817 | 37.60000 | 35074 ft | 459 kts | 180° |
| 2026-05-06 07:54 | 45.77447 | 37.59348 | 35077 ft | 458 kts | 180° |
| 2026-05-06 07:55 | 45.71077 | 37.58698 | 35076 ft | 458 kts | 180° |
| 2026-05-06 07:55 | 45.64717 | 37.58051 | 35083 ft | 458 kts | 180° |
| 2026-05-06 07:56 | 45.58357 | 37.57410 | 35078 ft | 457 kts | 180° |
| 2026-05-06 07:56 | 45.52029 | 37.57182 | 35061 ft | 450 kts | 165° |
| 2026-05-06 07:57 | 45.49092 | 37.58511 | 35081 ft | 439 kts | 148° |
| 2026-05-06 07:57 | 45.46624 | 37.60958 | 35078 ft | 430 kts | 131° |
| 2026-05-06 07:57 | 45.44824 | 37.64298 | 35082 ft | 423 kts | 114° |
| 2026-05-06 07:57 | 45.44080 | 37.66841 | 35079 ft | 419 kts | 103° |